Time;durP1;ratioP1;P1;durP2;ratioP2;P2;SDS_P1;SDS_P2;PMS_P1;PMS_P2;Temp;Humidity;BMP_temperature;BMP_pressure;BME280_temperature;BME280_humidity;BME280_pressure;Samples;Min_cycle;Max_cycle;Signal;HPM_P1;HPM_P2
2023/10/30 00:02:09;;;;;;;5.55;0.95;;;;;;;-149.70;100.00;76080.81;4993962;28;20491;-63
2023/10/30 00:04:36;;;;;;;3.75;1.00;;;;;;;-149.70;100.00;76080.81;4993703;28;20101;-63
2023/10/30 00:07:03;;;;;;;4.68;0.98;;;;;;;-149.70;100.00;76093.00;4994127;28;20482;-63
2023/10/30 00:09:29;;;;;;;5.07;1.13;;;;;;;-149.70;100.00;76088.94;4994227;28;20048;-63
2023/10/30 00:11:56;;;;;;;1.55;0.93;;;;;;;-149.70;100.00;76088.94;4993999;28;20062;-63
2023/10/30 00:14:23;;;;;;;4.80;1.15;;;;;;;-149.70;100.00;76093.00;4993868;28;20470;-63
2023/10/30 00:16:50;;;;;;;5.70;0.90;;;;;;;-149.70;100.00;76084.88;4992046;28;20078;-64
2023/10/30 00:19:17;;;;;;;2.42;0.80;;;;;;;-149.70;100.00;76076.75;4993719;28;20511;-63
2023/10/30 00:21:43;;;;;;;2.03;0.75;;;;;;;-149.70;100.00;76080.81;4993204;28;20046;-63
2023/10/30 00:24:10;;;;;;;2.75;0.85;;;;;;;-149.70;100.00;76074.69;4993342;28;20078;-63
2023/10/30 00:26:37;;;;;;;5.03;1.00;;;;;;;-149.70;100.00;76072.66;4992951;28;20049;-63
2023/10/30 00:29:03;;;;;;;8.65;1.23;;;;;;;-149.70;100.00;76066.56;4993417;28;20058;-63
2023/10/30 00:31:30;;;;;;;2.55;0.73;;;;;;;-149.70;100.00;76084.88;4993669;28;20046;-63
2023/10/30 00:33:56;;;;;;;3.53;0.90;;;;;;;-149.70;100.00;76093.00;4992809;28;20538;-63
2023/10/30 00:36:23;;;;;;;3.42;1.00;;;;;;;-149.70;100.00;76095.03;4993469;28;20112;-63
2023/10/30 00:38:52;;;;;;;2.67;0.88;;;;;;;-149.70;100.00;76093.00;4992937;28;20133;-64
2023/10/30 00:41:18;;;;;;;2.28;0.70;;;;;;;-149.70;100.00;76095.03;4991709;28;20411;-63
2023/10/30 00:43:45;;;;;;;5.68;0.75;;;;;;;-149.70;100.00;76095.03;4992562;28;20129;-63
2023/10/30 00:46:12;;;;;;;9.57;1.05;;;;;;;-149.70;100.00;76105.19;4992074;28;20046;-63
2023/10/30 00:48:40;;;;;;;4.53;1.00;;;;;;;-149.70;100.00;76101.13;4974933;28;20183;-64
2023/10/30 00:51:06;;;;;;;3.95;0.70;;;;;;;-149.70;100.00;76121.47;4992396;28;20565;-63
2023/10/30 00:53:36;;;;;;;4.32;1.00;;;;;;;-149.70;100.00;76125.53;5002056;28;20121;-64
2023/10/30 00:56:03;;;;;;;2.88;0.80;;;;;;;-149.70;100.00;76127.56;5012182;28;20104;-63
2023/10/30 00:58:30;;;;;;;5.32;0.90;;;;;;;-149.70;100.00;76131.63;5011711;28;20117;-63
2023/10/30 01:00:57;;;;;;;5.68;0.90;;;;;;;-149.70;100.00;76125.53;5010479;28;20073;-63
2023/10/30 01:03:23;;;;;;;3.15;0.52;;;;;;;-149.70;100.00;76125.53;5011556;28;20502;-63
2023/10/30 01:05:58;;;;;;;8.20;1.00;;;;;;;-149.70;100.00;76137.72;5011461;28;20065;-63
2023/10/30 01:08:28;;;;;;;5.70;0.80;;;;;;;-149.70;100.00;76139.75;5011500;28;20725;-63
2023/10/30 01:10:58;;;;;;;2.10;0.60;;;;;;;-149.70;100.00;76129.59;5010980;28;20092;-63
2023/10/30 01:13:25;;;;;;;2.75;0.70;;;;;;;-149.70;100.00;76119.44;5011221;28;20057;-63
2023/10/30 01:15:55;;;;;;;5.13;1.00;;;;;;;-149.70;100.00;76121.47;4993496;28;20042;-63
2023/10/30 01:18:22;;;;;;;3.00;0.60;;;;;;;-149.70;100.00;76125.53;5010971;28;20056;-63
2023/10/30 01:20:48;;;;;;;4.88;0.95;;;;;;;-149.70;100.00;76125.53;5011218;28;20038;-64
2023/10/30 01:23:16;;;;;;;3.42;0.57;;;;;;;-149.70;100.00;76129.59;4993486;28;20517;-63
2023/10/30 01:25:46;;;;;;;2.20;0.63;;;;;;;-149.70;100.00;76121.47;5011004;28;20287;-63
2023/10/30 01:28:12;;;;;;;9.40;1.00;;;;;;;-149.70;100.00;76131.63;5011054;28;20490;-63
2023/10/30 01:30:39;;;;;;;3.95;0.85;;;;;;;-149.70;100.00;76137.72;5011725;28;20542;-63
2023/10/30 01:33:06;;;;;;;5.10;0.70;;;;;;;-149.70;100.00;76137.72;5010746;28;20041;-63
2023/10/30 01:35:34;;;;;;;2.50;0.60;;;;;;;-149.70;100.00;76145.88;4994055;28;20046;-62
2023/10/30 01:38:00;;;;;;;4.13;0.73;;;;;;;-149.70;100.00;76141.78;5010749;28;20052;-63
2023/10/30 01:40:27;;;;;;;7.00;0.90;;;;;;;-149.70;100.00;76149.94;5010944;28;20406;-63
2023/10/30 01:42:54;;;;;;;3.58;0.80;;;;;;;-149.70;100.00;76151.97;5011452;28;20108;-63
2023/10/30 01:45:20;;;;;;;6.07;1.10;;;;;;;-149.70;100.00;76137.72;5010202;28;20495;-63
2023/10/30 01:47:48;;;;;;;8.77;1.00;;;;;;;-149.70;100.00;76149.94;5010841;28;20414;-63
2023/10/30 01:50:16;;;;;;;2.50;0.90;;;;;;;-149.70;100.00;76145.88;5010935;28;20076;-63
2023/10/30 01:52:44;;;;;;;5.72;0.80;;;;;;;-149.70;100.00;76162.13;5008024;28;20510;-63
2023/10/30 01:55:12;;;;;;;5.38;1.20;;;;;;;-149.70;100.00;76162.13;4990780;28;20069;-62
2023/10/30 01:57:39;;;;;;;6.57;0.88;;;;;;;-149.70;100.00;76158.06;4990847;28;20042;-63
2023/10/30 02:00:07;;;;;;;5.72;1.05;;;;;;;-149.70;100.00;76160.09;4991080;28;20066;-63
2023/10/30 02:02:37;;;;;;;6.97;0.82;;;;;;;-149.70;100.00;76164.16;4991457;28;20485;-64
2023/10/30 02:08:44;;;;;;;3.63;0.93;;;;;;;-149.70;100.00;76174.31;4989966;28;20053;-63
2023/10/30 02:11:11;;;;;;;5.20;0.77;;;;;;;-149.70;100.00;76170.25;4990731;28;20046;-63
2023/10/30 02:13:37;;;;;;;4.72;0.90;;;;;;;-149.70;100.00;76170.25;4989848;28;20487;-63
2023/10/30 02:16:04;;;;;;;3.28;0.82;;;;;;;-149.70;100.00;76172.28;4989100;28;20050;-64
2023/10/30 02:18:31;;;;;;;4.43;0.80;;;;;;;-149.70;100.00;76178.41;4990528;28;20046;-63
2023/10/30 02:20:58;;;;;;;6.72;1.33;;;;;;;-149.70;100.00;76178.41;4989642;28;20050;-63
2023/10/30 02:23:24;;;;;;;4.45;0.90;;;;;;;-149.70;100.00;76176.38;4990473;28;20462;-63
2023/10/30 02:25:51;;;;;;;2.95;0.80;;;;;;;-149.70;100.00;76182.47;4989748;28;20096;-63
2023/10/30 02:28:17;;;;;;;3.70;0.90;;;;;;;-149.70;100.00;76186.53;4990520;28;20462;-63
2023/10/30 02:30:44;;;;;;;2.28;1.02;;;;;;;-149.70;100.00;76174.31;4989887;28;20519;-63
2023/10/30 02:33:11;;;;;;;4.13;0.70;;;;;;;-149.70;100.00;76182.47;4990131;28;20487;-63
2023/10/30 02:35:37;;;;;;;8.30;0.93;;;;;;;-149.70;100.00;76174.31;4989834;28;20054;-64
2023/10/30 02:38:04;;;;;;;4.35;0.90;;;;;;;-149.70;100.00;76170.25;4990289;28;20133;-64
2023/10/30 02:40:30;;;;;;;3.92;0.80;;;;;;;-149.70;100.00;76170.25;4990901;28;20104;-63
2023/10/30 02:42:57;;;;;;;6.97;1.20;;;;;;;-149.70;100.00;76174.31;4990316;28;20050;-63
2023/10/30 02:45:23;;;;;;;4.20;0.80;;;;;;;-149.70;100.00;76182.47;4989869;28;20077;-63
2023/10/30 02:47:50;;;;;;;7.28;1.25;;;;;;;-149.70;100.00;76178.41;4990556;28;20495;-63
2023/10/30 02:50:16;;;;;;;2.85;0.90;;;;;;;-149.70;100.00;76178.41;4989901;28;20535;-63
2023/10/30 02:52:43;;;;;;;7.55;0.93;;;;;;;-149.70;100.00;76176.38;4992332;28;20423;-63
2023/10/30 02:55:10;;;;;;;3.13;0.93;;;;;;;-149.70;100.00;76176.38;5009544;28;20096;-63
2023/10/30 02:57:36;;;;;;;12.63;1.10;;;;;;;-149.70;100.00;76174.31;5009466;28;20045;-63
2023/10/30 03:00:06;;;;;;;7.30;1.20;;;;;;;-149.70;100.00;76176.38;5009865;28;20042;-63
2023/10/30 03:02:33;;;;;;;9.93;0.88;;;;;;;-149.70;100.00;76180.44;5009430;28;20050;-64
2023/10/30 03:05:00;;;;;;;5.43;1.08;;;;;;;-149.70;100.00;76176.38;5009718;28;20042;-63
2023/10/30 03:07:27;;;;;;;5.30;1.08;;;;;;;-149.70;100.00;76180.44;5009230;28;20145;-63
2023/10/30 03:09:54;;;;;;;4.13;0.93;;;;;;;-149.70;100.00;76186.53;5009744;28;20399;-63
2023/10/30 03:12:20;;;;;;;5.43;1.10;;;;;;;-149.70;100.00;76172.28;5008780;28;20049;-63
2023/10/30 03:14:48;;;;;;;11.38;1.30;;;;;;;-149.70;100.00;76170.25;5009185;28;20543;-63
2023/10/30 03:17:14;;;;;;;5.10;0.93;;;;;;;-149.70;100.00;76178.41;5008964;28;20049;-63
2023/10/30 03:19:41;;;;;;;5.55;1.00;;;;;;;-149.70;100.00;76182.47;5009466;28;20410;-63
2023/10/30 03:22:07;;;;;;;9.25;1.38;;;;;;;-149.70;100.00;76170.25;5009398;28;20102;-63
2023/10/30 03:24:34;;;;;;;6.85;0.95;;;;;;;-149.70;100.00;76176.38;5011910;28;20486;-64
2023/10/30 03:27:01;;;;;;;5.65;1.20;;;;;;;-149.70;100.00;76180.44;5013900;28;20046;-63
2023/10/30 03:29:27;;;;;;;4.03;1.20;;;;;;;-149.70;100.00;76178.41;5013380;28;20486;-63
2023/10/30 03:31:54;;;;;;;5.78;1.10;;;;;;;-149.70;100.00;76198.72;5012921;28;20042;-63
2023/10/30 03:34:21;;;;;;;6.28;1.30;;;;;;;-149.70;100.00;76190.59;5012976;28;20069;-63
2023/10/30 03:36:48;;;;;;;4.75;1.40;;;;;;;-149.70;100.00;76182.47;5013006;28;20100;-63
2023/10/30 03:39:15;;;;;;;6.28;0.77;;;;;;;-149.70;100.00;76176.38;5013093;28;20520;-63
2023/10/30 03:41:44;;;;;;;5.50;1.00;;;;;;;-149.70;100.00;76174.31;5013222;28;20052;-63
2023/10/30 03:44:11;;;;;;;3.63;0.80;;;;;;;-149.70;100.00;76166.19;5012897;28;20413;-63
2023/10/30 03:46:38;;;;;;;6.25;1.08;;;;;;;-149.70;100.00;76190.59;5012471;28;20508;-63
2023/10/30 03:49:05;;;;;;;6.35;0.93;;;;;;;-149.70;100.00;76190.59;5013027;28;20077;-63
2023/10/30 03:51:31;;;;;;;4.05;1.02;;;;;;;-149.70;100.00;76182.47;5013580;28;20096;-63
2023/10/30 03:53:58;;;;;;;5.82;1.05;;;;;;;-149.70;100.00;76188.56;5000703;28;20466;-63
2023/10/30 03:56:24;;;;;;;3.75;1.00;;;;;;;-149.70;100.00;76190.59;4993148;28;20100;-63
2023/10/30 03:58:51;;;;;;;3.13;1.10;;;;;;;-149.70;100.00;76192.63;4993448;28;20133;-63
2023/10/30 04:01:17;;;;;;;4.43;0.85;;;;;;;-149.70;100.00;76182.47;4993180;28;20042;-63
2023/10/30 04:03:46;;;;;;;5.43;0.88;;;;;;;-149.70;100.00;76186.53;4992315;28;20042;-63
2023/10/30 04:06:13;;;;;;;8.50;1.20;;;;;;;-149.70;100.00;76202.78;4992921;28;20049;-63
2023/10/30 04:08:39;;;;;;;2.72;0.85;;;;;;;-149.70;100.00;76194.66;4992873;28;20115;-63
2023/10/30 04:11:11;;;;;;;7.35;1.00;;;;;;;-149.70;100.00;76200.75;4992619;28;20414;-63
2023/10/30 04:13:38;;;;;;;12.88;1.17;;;;;;;-149.70;100.00;76202.78;4992711;28;20097;-63
2023/10/30 04:16:10;;;;;;;6.57;1.13;;;;;;;-149.70;100.00;76208.91;4992346;28;20043;-63
2023/10/30 04:18:37;;;;;;;7.50;1.40;;;;;;;-149.70;100.00;76194.66;4993290;28;20070;-64
2023/10/30 04:21:05;;;;;;;4.80;1.33;;;;;;;-149.70;100.00;76202.78;4992712;28;20057;-63
2023/10/30 04:23:32;;;;;;;7.82;1.05;;;;;;;-149.70;100.00;76204.81;4993014;28;20104;-63
2023/10/30 04:25:59;;;;;;;3.55;1.17;;;;;;;-149.70;100.00;76215.00;4992479;28;20109;-63
2023/10/30 04:28:25;;;;;;;4.53;0.90;;;;;;;-149.70;100.00;76204.81;4992602;28;20519;-63
2023/10/30 04:30:52;;;;;;;5.65;1.05;;;;;;;-149.70;100.00;76215.00;4992206;28;20454;-63
2023/10/30 04:33:18;;;;;;;7.25;1.13;;;;;;;-149.70;100.00;76219.06;4992382;28;20050;-63
2023/10/30 04:35:45;;;;;;;2.45;0.98;;;;;;;-149.70;100.00;76206.84;4991065;28;20050;-63
2023/10/30 04:38:12;;;;;;;2.63;1.02;;;;;;;-149.70;100.00;76212.97;4992626;28;20507;-63
2023/10/30 04:40:39;;;;;;;5.10;1.33;;;;;;;-149.70;100.00;76219.06;4992287;28;20069;-63
2023/10/30 04:43:05;;;;;;;4.47;0.88;;;;;;;-149.70;100.00;76227.19;4992257;28;20081;-63
2023/10/30 04:45:32;;;;;;;6.70;1.30;;;;;;;-149.70;100.00;76208.91;4992847;28;20050;-63
2023/10/30 04:47:59;;;;;;;2.67;1.05;;;;;;;-149.70;100.00;76204.81;4992727;28;20046;-63
2023/10/30 04:50:26;;;;;;;9.35;1.85;;;;;;;-149.70;100.00;76210.94;4992522;28;20560;-63
2023/10/30 04:52:52;;;;;;;10.88;1.25;;;;;;;-149.70;100.00;76210.94;4995716;28;20100;-63
2023/10/30 04:55:19;;;;;;;2.90;0.80;;;;;;;-149.70;100.00;76223.13;5011715;28;20041;-63
2023/10/30 04:57:45;;;;;;;4.25;0.98;;;;;;;-149.70;100.00;76233.28;5011173;28;20088;-63
2023/10/30 05:00:12;;;;;;;2.92;0.80;;;;;;;-149.70;100.00;76227.19;5011439;28;20041;-63
2023/10/30 05:02:39;;;;;;;11.02;1.17;;;;;;;-149.70;100.00;76231.25;5011194;28;20120;-63
2023/10/30 05:05:06;;;;;;;2.78;1.02;;;;;;;-149.70;100.00;76239.38;5011177;28;20121;-63
2023/10/30 05:07:33;;;;;;;12.48;1.40;;;;;;;-149.70;100.00;76237.34;4994542;28;20072;-63
2023/10/30 05:09:59;;;;;;;3.75;0.88;;;;;;;-149.70;100.00;76229.22;5012223;28;20543;-63
2023/10/30 05:12:27;;;;;;;6.80;1.10;;;;;;;-149.70;100.00;76229.22;5011638;28;20490;-63
2023/10/30 05:14:53;;;;;;;9.30;1.25;;;;;;;-149.70;100.00;76247.53;5011072;28;21368;-63
2023/10/30 05:17:20;;;;;;;6.28;1.15;;;;;;;-149.70;100.00;76243.47;5011276;28;20050;-63
2023/10/30 05:19:46;;;;;;;8.57;0.95;;;;;;;-149.70;100.00;76249.56;5011559;28;20053;-63
2023/10/30 05:22:13;;;;;;;5.68;1.45;;;;;;;-149.70;100.00;76247.53;5010992;28;20065;-63
2023/10/30 05:24:41;;;;;;;3.38;1.02;;;;;;;-149.70;100.00;76243.47;5010456;28;20048;-63
2023/10/30 05:27:08;;;;;;;7.28;1.35;;;;;;;-149.70;100.00;76247.53;5011097;28;20049;-63
2023/10/30 05:29:34;;;;;;;10.98;1.45;;;;;;;-149.70;100.00;76255.66;5011360;28;20556;-63
2023/10/30 05:32:06;;;;;;;11.68;1.75;;;;;;;-149.70;100.00;76243.47;5011330;28;20104;-63
2023/10/30 05:34:34;;;;;;;4.32;1.10;;;;;;;-149.70;100.00;76231.25;4993880;28;20498;-63
2023/10/30 05:37:01;;;;;;;7.03;1.23;;;;;;;-149.70;100.00;76239.38;5011373;28;20045;-63
2023/10/30 05:39:28;;;;;;;6.65;1.20;;;;;;;-149.70;100.00;76255.66;5011113;28;20112;-63
2023/10/30 05:41:54;;;;;;;4.80;1.50;;;;;;;-149.70;100.00;76249.56;5010882;28;20053;-63
2023/10/30 05:44:21;;;;;;;8.23;1.92;;;;;;;-149.70;100.00;76257.69;5010451;28;20053;-63
2023/10/30 05:46:47;;;;;;;10.55;1.55;;;;;;;-149.70;100.00;76251.59;5010232;28;20103;-63
2023/10/30 05:49:14;;;;;;;10.05;2.53;;;;;;;-149.70;100.00;76253.63;5010745;28;20042;-63
2023/10/30 05:51:40;;;;;;;9.98;2.08;;;;;;;-149.70;100.00;76259.72;5010584;28;20073;-63
2023/10/30 05:54:07;;;;;;;4.85;1.70;;;;;;;-149.70;100.00;76271.91;4997013;28;20058;-63
2023/10/30 05:56:33;;;;;;;5.60;2.10;;;;;;;-149.70;100.00;76265.81;4990676;28;20069;-64
2023/10/30 05:59:00;;;;;;;7.72;2.30;;;;;;;-149.70;100.00;76257.69;4991357;28;20066;-63
2023/10/30 06:01:27;;;;;;;6.50;1.65;;;;;;;-149.70;100.00;76255.66;4991117;28;20042;-63
2023/10/30 06:03:53;;;;;;;7.93;2.05;;;;;;;-149.70;100.00;76251.59;4991106;28;20096;-63
2023/10/30 06:06:20;;;;;;;7.78;1.38;;;;;;;-149.70;100.00;76263.78;4990601;28;20067;-63
2023/10/30 06:08:47;;;;;;;7.70;1.95;;;;;;;-149.70;100.00;76251.59;4973126;28;20042;-63
2023/10/30 06:11:14;;;;;;;6.63;1.50;;;;;;;-149.70;100.00;76257.69;4990870;28;20395;-63
2023/10/30 06:13:41;;;;;;;10.02;1.40;;;;;;;-149.70;100.00;76255.66;4990950;28;20050;-64
2023/10/30 06:16:18;;;;;;;4.72;1.13;;;;;;;-149.70;100.00;76259.72;4990532;28;20395;-64
2023/10/30 06:18:45;;;;;;;4.25;1.30;;;;;;;-149.70;100.00;76259.72;4990095;28;20042;-64
2023/10/30 06:21:16;;;;;;;5.72;1.38;;;;;;;-149.70;100.00;76263.78;4989799;28;20042;-64
2023/10/30 06:23:43;;;;;;;5.95;1.63;;;;;;;-149.70;100.00;76271.91;4989739;28;20053;-65
2023/10/30 06:26:12;;;;;;;6.20;1.30;;;;;;;-149.70;100.00;76265.81;4998314;28;20050;-64
2023/10/30 06:28:40;;;;;;;8.48;1.45;;;;;;;-149.70;100.00;76263.78;4997253;28;20042;-64
2023/10/30 06:31:17;;;;;;;12.05;1.60;;;;;;;-149.70;100.00;76271.91;5008461;28;20088;-64
2023/10/30 06:33:45;;;;;;;3.25;1.02;;;;;;;-149.70;100.00;76265.81;5010228;28;20057;-64
2023/10/30 06:36:12;;;;;;;8.98;1.55;;;;;;;-149.70;100.00;76249.56;4998958;28;20093;-64
2023/10/30 06:38:39;;;;;;;6.82;1.80;;;;;;;-149.70;100.00;76253.63;5001318;28;20045;-64
2023/10/30 06:41:06;;;;;;;7.15;1.20;;;;;;;-149.70;100.00;76261.75;5009361;28;20053;-64
2023/10/30 06:43:33;;;;;;;5.07;1.50;;;;;;;-149.70;100.00;76231.25;5010524;28;20044;-62
2023/10/30 06:46:03;;;;;;;9.65;2.00;;;;;;;-149.70;100.00;76239.38;5009444;28;20120;-62
2023/10/30 06:48:31;;;;;;;8.73;1.80;;;;;;;-149.70;100.00;76210.94;5009127;28;20117;-62
2023/10/30 06:50:58;;;;;;;7.53;1.00;;;;;;;-149.70;100.00;76210.94;5010064;28;20461;-65
2023/10/30 06:53:25;;;;;;;5.07;1.52;;;;;;;-149.70;100.00;76215.00;4999381;28;20074;-63
2023/10/30 06:55:52;;;;;;;5.60;1.80;;;;;;;-149.70;100.00;76210.94;4990697;28;20105;-63
2023/10/30 06:58:18;;;;;;;5.68;1.80;;;;;;;-149.70;100.00;76225.16;4996388;28;20096;-63
2023/10/30 07:00:45;;;;;;;4.45;1.42;;;;;;;-149.70;100.00;76212.97;5007120;28;20042;-63
2023/10/30 07:03:12;;;;;;;8.82;1.23;;;;;;;-149.70;100.00;76215.00;5010220;28;20046;-63
2023/10/30 07:05:39;;;;;;;9.35;1.50;;;;;;;-149.70;100.00;76210.94;5007361;28;20498;-63
2023/10/30 07:08:08;;;;;;;7.63;1.40;;;;;;;-149.70;100.00;76210.94;5006671;28;20128;-63
2023/10/30 07:10:35;;;;;;;4.28;1.02;;;;;;;-149.70;100.00;76196.69;4991091;28;20105;-65
2023/10/30 07:13:02;;;;;;;12.50;1.42;;;;;;;-149.70;100.00;76182.47;4990942;28;20050;-64
2023/10/30 07:15:28;;;;;;;11.05;2.15;;;;;;;-149.70;100.00;76172.28;4992879;28;20050;-64
2023/10/30 07:17:56;;;;;;;7.25;1.65;;;;;;;-149.70;100.00;76168.22;5007294;28;20058;-64
2023/10/30 07:20:24;;;;;;;7.63;1.83;;;;;;;-149.70;100.00;76156.03;5008967;28;20104;-64
2023/10/30 07:22:50;;;;;;;7.57;2.00;;;;;;;-149.70;100.00;76154.00;5008609;28;20050;-64
2023/10/30 07:25:17;;;;;;;10.73;2.25;;;;;;;-149.70;100.00;76149.94;5009865;28;20057;-64
2023/10/30 07:27:43;;;;;;;12.00;2.10;;;;;;;-149.70;100.00;76125.53;5009908;28;20069;-64
2023/10/30 07:30:10;;;;;;;4.50;1.60;;;;;;;-149.70;100.00;76123.50;5010127;28;20073;-63
2023/10/30 07:32:37;;;;;;;5.60;1.35;;;;;;;-149.70;100.00;76105.19;5000218;28;20457;-64
2023/10/30 07:35:06;;;;;;;6.53;1.17;;;;;;;-149.70;100.00;76121.47;4987883;28;20074;-64
2023/10/30 07:37:36;;;;;;;7.88;1.30;;;;;;;-149.70;100.00;76101.13;4990963;28;20042;-63
2023/10/30 07:40:03;;;;;;;6.30;1.80;;;;;;;-149.70;100.00;76090.97;4992700;28;20053;-64
2023/10/30 07:42:31;;;;;;;13.45;2.10;;;;;;;-149.70;100.00;76095.03;5010362;28;20072;-63
2023/10/30 07:44:57;;;;;;;4.30;1.60;;;;;;;-149.70;100.00;76103.16;5008609;28;20056;-64
2023/10/30 07:47:24;;;;;;;4.43;1.27;;;;;;;-149.70;100.00;76078.78;5010770;28;20046;-64
2023/10/30 07:50:09;;;;;;;6.30;1.90;;;;;;;-149.70;100.00;76090.97;5005950;28;20582;-64
2023/10/30 07:52:35;;;;;;;14.98;1.63;;;;;;;-149.70;100.00;76080.81;4991724;28;20038;-64
2023/10/30 07:55:05;;;;;;;10.00;1.88;;;;;;;-149.70;100.00;76060.47;5010363;28;20124;-64
2023/10/30 07:57:31;;;;;;;7.97;1.40;;;;;;;-149.70;100.00;76032.00;5003672;28;20097;-63
2023/10/30 07:59:58;;;;;;;13.20;1.67;;;;;;;-149.70;100.00;76013.72;4989776;28;20054;-64
2023/10/30 08:02:25;;;;;;;15.38;2.65;;;;;;;-149.70;100.00;75991.34;4982280;28;20054;-63
2023/10/30 08:04:51;;;;;;;7.72;2.10;;;;;;;-149.70;100.00;75987.28;5002089;28;20113;-63
2023/10/30 08:07:20;;;;;;;7.75;1.73;;;;;;;-149.70;100.00;76003.53;5005471;28;20049;-64
2023/10/30 08:09:47;;;;;;;13.18;1.73;;;;;;;-149.70;100.00;75997.44;5010933;28;20049;-64
2023/10/30 08:12:13;;;;;;;8.82;1.67;;;;;;;-149.70;100.00;76021.84;5011751;28;20069;-64
2023/10/30 08:14:40;;;;;;;8.95;1.50;;;;;;;-149.70;100.00;76007.63;5010614;28;20453;-64
2023/10/30 08:17:08;;;;;;;12.75;1.45;;;;;;;-149.70;100.00;76013.72;5010276;28;20096;-65
2023/10/30 08:19:35;;;;;;;10.32;2.03;;;;;;;-149.70;100.00;76032.00;5000096;28;20069;-64
2023/10/30 08:22:02;;;;;;;11.68;2.25;;;;;;;-149.70;100.00;76036.06;4992992;28;20046;-64
2023/10/30 08:24:28;;;;;;;10.95;2.70;;;;;;;-149.70;100.00;76023.88;5002591;28;20042;-64
2023/10/30 08:26:55;;;;;;;10.48;1.80;;;;;;;-149.70;100.00;76023.88;5002339;28;20513;-64
2023/10/30 08:29:22;;;;;;;13.52;2.15;;;;;;;-149.70;100.00;76042.19;5012732;28;20058;-64
2023/10/30 08:31:49;;;;;;;7.35;2.28;;;;;;;-149.70;100.00;76044.22;5012799;28;20100;-64
2023/10/30 08:34:15;;;;;;;9.40;1.75;;;;;;;-149.70;100.00;76038.09;5012922;28;20042;-64
2023/10/30 08:36:43;;;;;;;12.15;1.55;;;;;;;-149.70;100.00;76060.47;5012057;28;20065;-64
2023/10/30 08:39:12;;;;;;;8.10;1.98;;;;;;;-149.70;100.00;76042.19;5012775;28;20070;-64
2023/10/30 08:41:39;;;;;;;8.68;2.30;;;;;;;-149.70;100.00;76036.06;5004716;28;20047;-64
2023/10/30 08:44:06;;;;;;;6.32;1.63;;;;;;;-149.70;100.00;76027.94;5012390;28;20560;-64
2023/10/30 08:46:33;;;;;;;12.25;2.13;;;;;;;-149.70;100.00;76034.03;5012804;28;20446;-63
2023/10/30 08:49:04;;;;;;;6.55;1.35;;;;;;;-149.70;100.00;76042.19;4995369;28;20041;-65
2023/10/30 08:51:31;;;;;;;6.88;1.55;;;;;;;-149.70;100.00;76023.88;5013101;28;20052;-65
2023/10/30 08:53:57;;;;;;;8.27;1.60;;;;;;;-149.70;100.00;76015.75;4999733;28;20052;-65
2023/10/30 08:56:24;;;;;;;15.35;2.05;;;;;;;-149.70;100.00;76015.75;4992646;28;20054;-64
2023/10/30 08:58:51;;;;;;;7.10;1.55;;;;;;;-149.70;100.00;75983.22;4992569;28;20454;-64
2023/10/30 09:01:17;;;;;;;6.43;1.20;;;;;;;-149.70;100.00;75971.00;5007398;28;20049;-64
2023/10/30 09:03:44;;;;;;;5.40;1.35;;;;;;;-149.70;100.00;75940.53;5008578;28;20117;-64
2023/10/30 09:06:11;;;;;;;10.60;1.70;;;;;;;-149.70;100.00;75946.63;4992390;28;20454;-64
2023/10/30 09:08:38;;;;;;;11.77;1.40;;;;;;;-149.70;100.00;75922.22;5012116;28;20050;-63
2023/10/30 09:11:04;;;;;;;9.43;2.13;;;;;;;-149.70;100.00;75918.16;5012675;28;20052;-63
2023/10/30 09:13:31;;;;;;;7.50;2.20;;;;;;;-149.70;100.00;75885.63;5012267;28;20050;-64
2023/10/30 09:15:58;;;;;;;8.93;1.80;;;;;;;-149.70;100.00;75897.81;5011805;28;20508;-64
2023/10/30 09:18:24;;;;;;;8.98;1.90;;;;;;;-149.70;100.00;75873.44;5012152;28;20103;-64
2023/10/30 09:20:51;;;;;;;7.32;1.98;;;;;;;-149.70;100.00;75879.53;5011476;28;20490;-63
2023/10/30 09:23:18;;;;;;;4.20;1.30;;;;;;;-149.70;100.00;75869.38;5011384;28;20050;-63
2023/10/30 09:25:45;;;;;;;10.40;1.92;;;;;;;-149.70;100.00;75861.22;5010793;28;20054;-63
2023/10/30 09:28:12;;;;;;;8.38;2.50;;;;;;;-149.70;100.00;75857.16;5011333;28;20046;-63
2023/10/30 09:30:38;;;;;;;14.48;1.63;;;;;;;-149.70;100.00;75869.38;5011330;28;20046;-63
2023/10/30 09:33:05;;;;;;;9.30;1.80;;;;;;;-149.70;100.00;75844.97;5010125;28;20068;-64
2023/10/30 09:35:33;;;;;;;7.15;1.50;;;;;;;-149.70;100.00;75855.13;5011802;28;20062;-63
2023/10/30 09:38:00;;;;;;;5.22;1.40;;;;;;;-149.70;100.00;75895.78;5011433;28;20034;-63
2023/10/30 09:40:27;;;;;;;5.82;1.60;;;;;;;-149.70;100.00;75883.59;5011377;28;20049;-64
2023/10/30 09:42:55;;;;;;;7.28;1.55;;;;;;;-149.70;100.00;75879.53;5011011;28;20042;-63
2023/10/30 09:45:24;;;;;;;11.88;2.05;;;;;;;-149.70;100.00;75873.44;5011224;28;20426;-64
2023/10/30 09:47:55;;;;;;;7.15;1.67;;;;;;;-149.70;100.00;75873.44;5011146;28;20100;-64
2023/10/30 09:50:23;;;;;;;7.93;1.50;;;;;;;-149.70;100.00;75855.13;5011562;28;20079;-66
2023/10/30 09:52:54;;;;;;;7.97;2.05;;;;;;;-149.70;100.00;75806.34;5007858;28;20495;-64
2023/10/30 09:55:24;;;;;;;7.95;1.70;;;;;;;-149.70;100.00;75812.44;4991420;28;20046;-67
2023/10/30 09:57:52;;;;;;;5.65;1.48;;;;;;;-149.70;100.00;75828.69;4991453;28;20053;-64
2023/10/30 10:00:20;;;;;;;7.68;1.85;;;;;;;-149.70;100.00;75806.34;4991341;28;20052;-65
2023/10/30 10:02:47;;;;;;;11.02;1.60;;;;;;;-149.70;100.00;75818.53;5002319;28;20049;-65
2023/10/30 10:05:15;;;;;;;8.18;1.35;;;;;;;-149.70;100.00;75832.78;4994589;28;20046;-65
2023/10/30 10:07:41;;;;;;;4.90;1.40;;;;;;;-149.70;100.00;75836.84;4990772;28;20050;-65
2023/10/30 10:10:08;;;;;;;11.60;1.88;;;;;;;-149.70;100.00;75812.44;4990937;28;20123;-65
2023/10/30 10:12:38;;;;;;;8.48;1.70;;;;;;;-149.70;100.00;75790.06;4997044;28;20130;-65
2023/10/30 10:15:06;;;;;;;13.60;1.73;;;;;;;-149.70;100.00;75796.19;4999099;28;20499;-65
2023/10/30 10:17:48;;;;;;;4.45;1.33;;;;;;;-149.70;100.00;75802.28;4991780;28;20077;-65
2023/10/30 10:20:15;;;;;;;9.48;1.50;;;;;;;-149.70;100.00;75834.81;4990607;28;20410;-66
2023/10/30 10:22:41;;;;;;;8.60;1.85;;;;;;;-149.70;100.00;75824.63;4990008;28;20057;-65
2023/10/30 10:25:10;;;;;;;16.10;2.17;;;;;;;-149.70;100.00;75851.06;4991002;28;20072;-65
2023/10/30 10:27:38;;;;;;;7.47;2.00;;;;;;;-149.70;100.00;75822.59;5000224;28;20041;-64
2023/10/30 10:30:06;;;;;;;10.95;2.00;;;;;;;-149.70;100.00;75836.84;5011347;28;20129;-64
2023/10/30 10:32:33;;;;;;;9.82;1.85;;;;;;;-149.70;100.00;75840.91;5009814;28;20037;-65
2023/10/30 10:35:05;;;;;;;7.07;1.95;;;;;;;-149.70;100.00;75861.22;5010224;28;20119;-65
2023/10/30 10:37:33;;;;;;;6.40;1.58;;;;;;;-149.70;100.00;75849.03;5010971;28;20530;-65
2023/10/30 10:40:01;;;;;;;9.57;1.90;;;;;;;-149.70;100.00;75849.03;5010252;28;20494;-65
2023/10/30 10:42:28;;;;;;;5.10;1.50;;;;;;;-149.70;100.00;75893.75;5010321;28;20372;-67
2023/10/30 10:44:56;;;;;;;9.65;1.65;;;;;;;-149.70;100.00;75877.50;5009966;28;20038;-66
2023/10/30 10:47:23;;;;;;;8.98;1.75;;;;;;;-149.70;100.00;75869.38;5010586;28;20533;-66
2023/10/30 10:49:53;;;;;;;9.35;1.88;;;;;;;-149.70;100.00;75844.97;5010636;28;20046;-65
2023/10/30 10:52:20;;;;;;;8.88;1.88;;;;;;;-149.70;100.00;75842.94;5010046;28;20108;-65
2023/10/30 10:55:03;;;;;;;11.05;2.10;;;;;;;-149.70;100.00;75834.81;4990104;28;20038;-65
2023/10/30 10:57:52;;;;;;;6.53;1.58;;;;;;;-149.70;100.00;75849.03;4973647;28;20057;-65
2023/10/30 11:00:20;;;;;;;9.65;1.55;;;;;;;-149.70;100.00;75857.16;5003619;28;20073;-65
2023/10/30 11:02:49;;;;;;;8.70;1.80;;;;;;;-149.70;100.00;75857.16;5009943;28;20049;-65
2023/10/30 11:05:16;;;;;;;10.63;1.80;;;;;;;-149.70;100.00;75859.19;5010163;28;20045;-64
2023/10/30 11:07:46;;;;;;;11.40;1.60;;;;;;;-149.70;100.00;75838.88;5010163;28;20098;-65
2023/10/30 11:10:18;;;;;;;9.68;1.65;;;;;;;-149.70;100.00;75769.75;5009694;28;20049;-64
2023/10/30 11:13:11;;;;;;;10.32;1.80;;;;;;;-149.70;100.00;75751.44;5010539;28;20046;-65